createdAt,value
2019-05-03T00:00:15.704Z,23.07
2019-05-03T00:01:15.694Z,23.04
2019-05-03T00:02:15.688Z,23.16
2019-05-03T00:03:15.693Z,23.01
2019-05-03T00:04:15.665Z,23.05
2019-05-03T00:05:15.665Z,23.12
2019-05-03T00:06:15.653Z,23.01
2019-05-03T00:07:15.653Z,23.10
2019-05-03T00:08:15.710Z,23.01
2019-05-03T00:09:15.649Z,23.09
2019-05-03T00:10:15.648Z,22.98
2019-05-03T00:11:15.641Z,23.02
2019-05-03T00:12:15.630Z,23.09
2019-05-03T00:13:15.626Z,23.07
2019-05-03T00:14:15.616Z,23.05
2019-05-03T00:15:15.613Z,23.13
2019-05-03T00:16:15.620Z,23.15
2019-05-03T00:17:15.586Z,23.10
2019-05-03T00:18:15.585Z,22.95
2019-05-03T00:19:15.609Z,23.09
2019-05-03T00:20:15.591Z,23.10
2019-05-03T00:21:15.579Z,23.12
2019-05-03T00:22:15.605Z,23.05
2019-05-03T00:23:15.564Z,23.00
2019-05-03T00:24:15.555Z,23.04
2019-05-03T00:25:15.549Z,22.94
2019-05-03T00:26:15.556Z,23.07
2019-05-03T00:27:15.535Z,23.04
2019-05-03T00:28:15.530Z,23.05
2019-05-03T00:29:15.523Z,23.05
2019-05-03T00:30:15.517Z,23.05
2019-05-03T00:31:15.516Z,23.15
2019-05-03T00:32:15.503Z,23.07
2019-05-03T00:33:15.497Z,23.01
2019-05-03T00:34:15.496Z,23.04
2019-05-03T00:35:15.474Z,23.02
2019-05-03T00:36:15.466Z,23.01
2019-05-03T00:37:15.476Z,23.16
2019-05-03T00:38:15.482Z,23.04
2019-05-03T00:39:15.475Z,23.02
2019-05-03T00:40:15.444Z,23.12
2019-05-03T00:41:15.434Z,23.13
2019-05-03T00:42:15.430Z,23.01
2019-05-03T00:43:15.419Z,23.07
2019-05-03T00:44:15.421Z,23.10
2019-05-03T00:45:15.398Z,23.05
2019-05-03T00:46:15.386Z,22.98
2019-05-03T00:47:15.381Z,23.13
2019-05-03T00:48:15.375Z,23.05
2019-05-03T00:49:15.368Z,23.10
2019-05-03T00:50:15.391Z,23.05
2019-05-03T00:51:15.355Z,22.98
2019-05-03T00:52:15.353Z,23.16
2019-05-03T00:53:15.334Z,23.09
2019-05-03T00:54:15.337Z,23.01
2019-05-03T00:55:18.980Z,23.09
2019-05-03T00:56:15.326Z,23.01
2019-05-03T00:57:15.301Z,23.05
2019-05-03T00:58:15.295Z,23.07
2019-05-03T00:59:15.300Z,22.95
2019-05-03T01:00:15.302Z,23.07
2019-05-03T01:01:15.295Z,23.00
2019-05-03T01:02:15.337Z,23.10
2019-05-03T01:03:15.297Z,23.04
2019-05-03T01:04:15.289Z,23.01
2019-05-03T01:05:15.317Z,22.97
2019-05-03T01:06:15.297Z,23.00
2019-05-03T01:07:15.292Z,23.01
2019-05-03T01:08:15.285Z,22.98
2019-05-03T01:09:15.277Z,23.10
2019-05-03T01:10:15.272Z,22.98
2019-05-03T01:11:15.266Z,23.01
2019-05-03T01:12:15.282Z,23.05
2019-05-03T01:13:15.289Z,23.05
2019-05-03T01:14:15.287Z,23.02
2019-05-03T01:15:15.270Z,23.09
2019-05-03T01:16:15.276Z,22.97
2019-05-03T01:17:15.280Z,22.94
2019-05-03T01:18:15.285Z,22.95
2019-05-03T01:19:15.271Z,23.01
2019-05-03T01:20:15.289Z,23.01
2019-05-03T01:21:15.273Z,23.01
2019-05-03T01:22:15.265Z,23.09
2019-05-03T01:23:15.254Z,23.04
2019-05-03T01:24:17.962Z,22.94
2019-05-03T01:25:15.245Z,23.02
2019-05-03T01:26:15.250Z,23.01
2019-05-03T01:27:15.222Z,23.00
2019-05-03T01:28:15.213Z,23.07
2019-05-03T01:29:15.236Z,22.98
2019-05-03T01:30:15.205Z,23.07
2019-05-03T01:31:15.202Z,23.02
2019-05-03T01:32:15.198Z,23.02
2019-05-03T01:33:15.176Z,23.12
2019-05-03T01:34:15.193Z,23.01
2019-05-03T01:35:15.178Z,23.04
2019-05-03T01:36:15.169Z,22.98
2019-05-03T01:37:15.178Z,23.02
2019-05-03T01:38:15.158Z,23.09
2019-05-03T01:39:15.156Z,23.01
2019-05-03T01:40:15.139Z,23.02
2019-05-03T01:41:15.131Z,22.90
2019-05-03T01:42:15.121Z,23.07
2019-05-03T01:43:15.130Z,23.00
2019-05-03T01:44:15.109Z,23.01
2019-05-03T01:45:15.116Z,23.05
2019-05-03T01:46:15.091Z,23.04
2019-05-03T01:47:15.084Z,23.01
2019-05-03T01:48:15.090Z,22.98
2019-05-03T01:49:15.075Z,23.07
2019-05-03T01:50:15.099Z,23.01
2019-05-03T01:51:15.053Z,23.02
2019-05-03T01:52:15.068Z,23.01
2019-05-03T01:53:15.050Z,23.02
2019-05-03T01:54:15.062Z,23.01
2019-05-03T01:55:15.961Z,23.04
2019-05-03T01:56:15.061Z,22.94
2019-05-03T01:57:15.012Z,23.00
2019-05-03T01:58:15.006Z,23.00
2019-05-03T01:59:15.028Z,23.04
2019-05-03T02:00:14.985Z,23.00
2019-05-03T02:01:14.986Z,23.02
2019-05-03T02:02:14.986Z,22.95
2019-05-03T02:03:14.966Z,23.01
2019-05-03T02:04:14.970Z,22.95
2019-05-03T02:05:14.955Z,23.04
2019-05-03T02:06:14.958Z,23.01
2019-05-03T02:07:14.942Z,23.02
2019-05-03T02:08:14.936Z,22.97
2019-05-03T02:09:14.915Z,22.98
2019-05-03T02:10:14.913Z,23.09
2019-05-03T02:11:14.922Z,22.95
2019-05-03T02:12:14.896Z,23.05
2019-05-03T02:13:14.894Z,22.98
2019-05-03T02:14:14.884Z,23.02
2019-05-03T02:15:14.871Z,23.00
2019-05-03T02:16:14.864Z,23.00
2019-05-03T02:17:14.857Z,22.98
2019-05-03T02:18:15.272Z,23.04
2019-05-03T02:19:14.850Z,22.92
2019-05-03T02:20:14.841Z,22.94
2019-05-03T02:21:14.828Z,23.00
2019-05-03T02:22:14.819Z,22.94
2019-05-03T02:23:14.814Z,23.01
2019-05-03T02:24:14.805Z,22.97
2019-05-03T02:25:14.820Z,23.04
2019-05-03T02:26:14.807Z,23.00
2019-05-03T02:27:14.794Z,22.92
2019-05-03T02:28:14.784Z,22.94
2019-05-03T02:29:14.777Z,22.97
2019-05-03T02:30:14.781Z,22.94
2019-05-03T02:31:14.801Z,22.91
2019-05-03T02:32:14.760Z,22.98
2019-05-03T02:33:14.760Z,23.02
2019-05-03T02:34:14.741Z,22.97
2019-05-03T02:35:14.735Z,22.97
2019-05-03T02:36:14.723Z,22.91
2019-05-03T02:37:14.737Z,22.94
2019-05-03T02:38:14.710Z,22.90
2019-05-03T02:39:14.708Z,23.02
2019-05-03T02:40:14.719Z,23.00
2019-05-03T02:41:14.680Z,22.98
2019-05-03T02:42:16.076Z,22.94
2019-05-03T02:43:16.575Z,22.95
2019-05-03T02:44:15.582Z,23.01
2019-05-03T02:45:15.423Z,22.95
2019-05-03T02:46:16.845Z,23.00
2019-05-03T02:47:15.877Z,22.92
2019-05-03T02:48:16.512Z,22.97
2019-05-03T02:49:15.373Z,23.00
2019-05-03T02:50:16.749Z,22.94
2019-05-03T02:51:15.581Z,22.95
2019-05-03T02:52:15.171Z,22.95
2019-05-03T02:53:15.689Z,22.97
2019-05-03T02:54:15.680Z,22.95
2019-05-03T02:55:16.093Z,22.91
2019-05-03T02:56:21.954Z,22.98
2019-05-03T02:57:15.560Z,22.98
2019-05-03T02:58:15.836Z,22.90
2019-05-03T02:59:15.719Z,22.92
2019-05-03T03:00:16.295Z,22.91
2019-05-03T03:01:16.315Z,23.00
2019-05-03T03:02:15.168Z,22.97
2019-05-03T03:03:16.589Z,22.95
2019-05-03T03:04:15.769Z,22.82
2019-05-03T03:05:16.673Z,22.94
2019-05-03T03:06:15.645Z,22.80
2019-05-03T03:07:15.145Z,22.91
2019-05-03T03:08:16.263Z,22.95
2019-05-03T03:09:16.497Z,22.85
2019-05-03T03:10:16.174Z,22.94
2019-05-03T03:11:15.574Z,22.91
2019-05-03T03:12:15.224Z,22.95
2019-05-03T03:13:16.304Z,22.88
2019-05-03T03:14:16.774Z,22.85
2019-05-03T03:15:16.259Z,22.85
2019-05-03T03:16:16.280Z,22.92
2019-05-03T03:17:14.953Z,22.94
2019-05-03T03:18:15.690Z,22.97
2019-05-03T03:19:15.915Z,22.92
2019-05-03T03:20:16.142Z,22.94
2019-05-03T03:21:16.013Z,22.92
2019-05-03T03:22:15.955Z,22.94
2019-05-03T03:23:17.880Z,22.88
2019-05-03T03:24:16.952Z,22.82
2019-05-03T03:25:17.185Z,22.95
2019-05-03T03:26:16.999Z,22.86
2019-05-03T03:27:16.355Z,22.91
2019-05-03T03:28:15.846Z,22.92
2019-05-03T03:29:16.128Z,22.90
2019-05-03T03:30:17.269Z,22.91
2019-05-03T03:31:17.623Z,22.88
2019-05-03T03:32:18.292Z,22.76
2019-05-03T03:33:17.511Z,22.82
2019-05-03T03:34:18.409Z,22.85
2019-05-03T03:35:20.196Z,22.91
2019-05-03T03:36:37.584Z,22.83
2019-05-03T03:37:15.755Z,22.86
2019-05-03T03:38:15.472Z,22.82
2019-05-03T03:39:15.161Z,22.85
2019-05-03T03:40:16.003Z,22.85
2019-05-03T03:41:16.321Z,22.83
2019-05-03T03:42:16.209Z,22.92
2019-05-03T03:43:15.684Z,22.97
2019-05-03T03:44:15.336Z,22.85
2019-05-03T03:45:16.538Z,22.90
2019-05-03T03:46:15.856Z,22.76
2019-05-03T03:47:16.618Z,22.79
2019-05-03T03:48:15.853Z,22.86
2019-05-03T03:49:15.492Z,22.88
2019-05-03T03:50:15.233Z,22.82
2019-05-03T03:51:15.496Z,22.83
2019-05-03T03:52:16.024Z,22.88
2019-05-03T03:53:15.409Z,22.76
2019-05-03T03:54:15.513Z,22.88
2019-05-03T03:55:15.917Z,22.79
2019-05-03T03:56:16.006Z,22.86
2019-05-03T03:57:15.920Z,22.77
2019-05-03T03:58:21.781Z,22.77
2019-05-03T03:59:15.448Z,22.85
2019-05-03T04:00:16.288Z,22.85
2019-05-03T04:01:15.713Z,22.85
2019-05-03T04:02:15.951Z,22.82
2019-05-03T04:03:15.840Z,22.82
2019-05-03T04:04:16.040Z,22.86
2019-05-03T04:05:15.967Z,22.85
2019-05-03T04:06:15.430Z,22.88
2019-05-03T04:07:15.787Z,22.80
2019-05-03T04:08:16.246Z,22.85
2019-05-03T04:09:16.106Z,22.82
2019-05-03T04:10:15.659Z,22.86
2019-05-03T04:11:15.588Z,22.77
2019-05-03T04:12:16.481Z,22.94
2019-05-03T04:13:16.018Z,22.86
2019-05-03T04:14:16.156Z,22.80
2019-05-03T04:15:15.999Z,22.86
2019-05-03T04:16:20.271Z,22.88
2019-05-03T04:17:15.290Z,22.79
2019-05-03T04:18:16.349Z,22.91
2019-05-03T04:19:14.152Z,22.80
2019-05-03T04:20:16.226Z,22.85
2019-05-03T04:21:16.182Z,22.82
2019-05-03T04:22:16.470Z,22.88
2019-05-03T04:23:16.243Z,22.90
2019-05-03T04:24:16.312Z,22.83
2019-05-03T04:25:15.450Z,22.80
2019-05-03T04:26:16.315Z,22.83
2019-05-03T04:27:19.773Z,22.77
2019-05-03T04:28:16.313Z,22.76
2019-05-03T04:29:16.097Z,22.82
2019-05-03T04:30:16.478Z,22.82
2019-05-03T04:31:15.283Z,22.83
2019-05-03T04:32:15.717Z,22.82
2019-05-03T04:33:16.001Z,22.80
2019-05-03T04:34:16.256Z,22.85
2019-05-03T04:35:16.470Z,22.86
2019-05-03T04:36:16.000Z,22.88
2019-05-03T04:37:16.176Z,22.88
2019-05-03T04:38:16.304Z,22.88
2019-05-03T04:39:17.172Z,22.85
2019-05-03T04:40:15.820Z,22.83
2019-05-03T04:41:15.898Z,22.83
2019-05-03T04:42:16.531Z,22.85
2019-05-03T04:43:16.259Z,22.82
2019-05-03T04:44:15.421Z,22.77
2019-05-03T04:45:16.530Z,22.90
2019-05-03T04:46:16.213Z,22.86
2019-05-03T04:47:15.605Z,22.82
2019-05-03T04:48:15.990Z,22.80
2019-05-03T04:49:15.120Z,22.76
2019-05-03T04:50:16.259Z,22.83
2019-05-03T04:51:16.588Z,22.86
2019-05-03T04:52:16.582Z,22.86
2019-05-03T04:53:16.113Z,22.79
2019-05-03T04:54:16.383Z,22.97
2019-05-03T04:55:16.030Z,22.91
2019-05-03T04:56:16.654Z,22.91
2019-05-03T04:57:16.025Z,22.95
2019-05-03T04:58:16.183Z,22.92
2019-05-03T04:59:15.983Z,22.91
2019-05-03T05:00:15.986Z,22.95
2019-05-03T05:01:15.735Z,22.83
2019-05-03T05:02:15.977Z,22.98
2019-05-03T05:03:15.049Z,22.94
2019-05-03T05:04:16.089Z,22.91
2019-05-03T05:05:15.418Z,22.88
2019-05-03T05:06:15.407Z,22.92
2019-05-03T05:07:15.504Z,22.98
2019-05-03T05:08:16.019Z,22.90
2019-05-03T05:09:15.606Z,22.98
2019-05-03T05:10:15.324Z,22.91
2019-05-03T05:11:15.797Z,22.97
2019-05-03T05:12:16.193Z,22.97
2019-05-03T05:13:15.699Z,22.92
2019-05-03T05:14:15.295Z,22.94
2019-05-03T05:15:15.657Z,22.86
2019-05-03T05:16:16.091Z,22.94
2019-05-03T05:17:16.387Z,22.91
2019-05-03T05:18:16.010Z,22.85
2019-05-03T05:19:15.196Z,22.83
2019-05-03T05:20:14.512Z,23.00
2019-05-03T05:21:14.981Z,22.90
2019-05-03T05:22:15.517Z,22.98
2019-05-03T05:23:14.734Z,22.92
2019-05-03T05:24:15.127Z,22.90
2019-05-03T05:25:14.862Z,22.88
2019-05-03T05:26:14.497Z,22.86
2019-05-03T05:27:14.641Z,22.86
2019-05-03T05:28:15.009Z,22.82
2019-05-03T05:29:14.635Z,22.94
2019-05-03T05:30:14.939Z,22.85
2019-05-03T05:31:15.143Z,22.90
2019-05-03T05:32:14.457Z,22.88
2019-05-03T05:33:14.536Z,22.77
2019-05-03T05:34:15.367Z,22.91
2019-05-03T05:35:14.372Z,22.77
2019-05-03T05:36:15.294Z,22.82
2019-05-03T05:37:14.521Z,22.92
2019-05-03T05:38:14.988Z,22.88
2019-05-03T05:39:15.273Z,22.82
2019-05-03T05:40:15.544Z,22.92
2019-05-03T05:41:15.497Z,22.97
2019-05-03T05:42:14.886Z,22.86
2019-05-03T05:43:15.193Z,22.90
2019-05-03T05:44:14.520Z,22.88
2019-05-03T05:45:15.353Z,22.88
2019-05-03T05:46:14.677Z,22.77
2019-05-03T05:47:14.996Z,22.83
2019-05-03T05:48:15.325Z,22.77
2019-05-03T05:49:14.716Z,22.97
2019-05-03T05:50:14.917Z,22.91
2019-05-03T05:51:15.864Z,22.82
2019-05-03T05:52:15.304Z,22.90
2019-05-03T05:53:15.135Z,22.95
2019-05-03T05:54:14.365Z,22.86
2019-05-03T05:55:14.898Z,22.76
2019-05-03T05:56:13.456Z,22.83
2019-05-03T05:57:14.979Z,22.82
2019-05-03T05:58:15.565Z,22.86
2019-05-03T05:59:14.836Z,22.90
2019-05-03T06:00:15.325Z,22.83
2019-05-03T06:01:14.612Z,22.85
2019-05-03T06:02:15.055Z,22.88
2019-05-03T06:03:14.903Z,22.82
2019-05-03T06:04:15.331Z,22.91
2019-05-03T06:05:14.826Z,22.82
2019-05-03T06:06:15.205Z,22.83
2019-05-03T06:07:14.884Z,22.90
2019-05-03T06:08:15.118Z,22.91
2019-05-03T06:09:15.328Z,22.86
2019-05-03T06:10:14.759Z,22.83
2019-05-03T06:11:14.877Z,22.80
2019-05-03T06:12:14.849Z,22.83
2019-05-03T06:13:15.144Z,22.88
2019-05-03T06:14:15.190Z,22.91
2019-05-03T06:15:14.990Z,22.94
2019-05-03T06:16:15.359Z,22.86
2019-05-03T06:17:14.684Z,22.83
2019-05-03T06:18:14.675Z,22.88
2019-05-03T06:19:14.709Z,22.86
2019-05-03T06:20:13.369Z,22.86
2019-05-03T06:21:14.816Z,22.83
2019-05-03T06:22:15.253Z,22.77
2019-05-03T06:23:14.458Z,22.85
2019-05-03T06:24:14.801Z,22.80
2019-05-03T06:25:16.355Z,22.90
2019-05-03T06:26:15.614Z,22.90
2019-05-03T06:27:15.206Z,22.85
2019-05-03T06:28:18.249Z,22.82
2019-05-03T06:29:15.012Z,22.77
2019-05-03T06:30:14.948Z,22.77
2019-05-03T06:31:14.919Z,22.82
2019-05-03T06:32:15.257Z,22.85
2019-05-03T06:33:14.374Z,22.86
2019-05-03T06:34:14.987Z,22.85
2019-05-03T06:35:15.096Z,22.91
2019-05-03T06:36:15.124Z,22.85
2019-05-03T06:37:14.780Z,22.83
2019-05-03T06:38:15.144Z,22.85
2019-05-03T06:39:15.068Z,22.88
2019-05-03T06:40:14.925Z,22.85
2019-05-03T06:41:15.068Z,22.88
2019-05-03T06:42:17.486Z,22.88
2019-05-03T06:43:15.751Z,22.98
2019-05-03T06:44:14.450Z,22.97
2019-05-03T06:45:14.766Z,22.95
2019-05-03T06:46:16.352Z,22.94
2019-05-03T06:47:14.832Z,22.95
2019-05-03T06:48:15.782Z,22.85
2019-05-03T06:49:15.158Z,22.95
2019-05-03T06:50:14.534Z,23.07
2019-05-03T06:51:17.859Z,22.95
2019-05-03T06:52:14.720Z,22.95
2019-05-03T06:53:15.336Z,23.00
2019-05-03T06:54:15.528Z,22.98
2019-05-03T06:55:14.539Z,22.95
2019-05-03T06:56:14.851Z,23.01
2019-05-03T06:57:14.796Z,23.02
2019-05-03T06:58:15.180Z,23.07
2019-05-03T06:59:14.385Z,23.00
2019-05-03T07:00:13.121Z,23.02
2019-05-03T07:01:14.833Z,22.97
2019-05-03T07:02:14.847Z,22.98
2019-05-03T07:03:14.992Z,22.95
2019-05-03T07:04:15.129Z,23.04
2019-05-03T07:05:14.847Z,23.02
2019-05-03T07:06:14.870Z,23.10
2019-05-03T07:07:13.155Z,23.01
2019-05-03T07:08:15.141Z,23.02
2019-05-03T07:09:14.434Z,23.02
2019-05-03T07:10:14.876Z,22.95
2019-05-03T07:11:13.059Z,23.01
2019-05-03T07:12:14.868Z,23.01
2019-05-03T07:13:15.012Z,23.12
2019-05-03T07:14:13.031Z,23.01
2019-05-03T07:15:14.494Z,23.04
2019-05-03T07:16:14.872Z,23.07
2019-05-03T07:17:14.506Z,23.04
2019-05-03T07:18:12.996Z,23.02
2019-05-03T07:19:14.737Z,22.94
2019-05-03T07:20:14.741Z,23.00
2019-05-03T07:21:15.127Z,23.07
2019-05-03T07:22:15.127Z,23.01
2019-05-03T07:23:12.960Z,23.07
2019-05-03T07:24:14.668Z,23.02
2019-05-03T07:25:14.833Z,23.00
2019-05-03T07:26:14.924Z,22.95
2019-05-03T07:27:12.932Z,23.02
2019-05-03T07:28:14.877Z,23.01
2019-05-03T07:29:15.083Z,23.01
2019-05-03T07:30:12.924Z,23.05
2019-05-03T07:31:14.948Z,23.02
2019-05-03T07:32:12.896Z,22.97
2019-05-03T07:33:15.022Z,23.01
2019-05-03T07:34:12.879Z,23.04
2019-05-03T07:35:14.669Z,23.05
2019-05-03T07:36:15.053Z,23.09
2019-05-03T07:37:14.533Z,23.01
2019-05-03T07:38:12.847Z,23.01
2019-05-03T07:39:14.569Z,23.00
2019-05-03T07:40:14.767Z,23.01
2019-05-03T07:41:14.778Z,23.05
2019-05-03T07:42:12.854Z,23.10
2019-05-03T07:43:14.754Z,23.01
2019-05-03T07:44:12.799Z,23.12
2019-05-03T07:45:14.789Z,23.12
2019-05-03T07:46:14.548Z,23.05
2019-05-03T07:47:14.719Z,23.09
2019-05-03T07:48:14.910Z,23.12
2019-05-03T07:49:12.778Z,23.07
2019-05-03T07:50:12.750Z,23.04
2019-05-03T07:51:14.418Z,22.98
2019-05-03T07:52:14.594Z,23.10
2019-05-03T07:53:14.869Z,23.13
2019-05-03T07:54:12.731Z,23.01
2019-05-03T07:55:14.827Z,23.05
2019-05-03T07:56:12.709Z,23.01
2019-05-03T07:57:12.699Z,23.02
2019-05-03T07:58:14.821Z,23.04
2019-05-03T07:59:14.890Z,23.13
2019-05-03T08:00:14.818Z,23.04
2019-05-03T08:01:14.822Z,23.13
2019-05-03T08:02:14.445Z,23.05
2019-05-03T08:03:12.659Z,23.04
2019-05-03T08:04:12.690Z,23.04
2019-05-03T08:05:12.635Z,23.15
2019-05-03T08:06:14.768Z,23.07
2019-05-03T08:07:22.098Z,22.98
2019-05-03T08:08:14.917Z,23.09
2019-05-03T08:09:12.610Z,23.04
2019-05-03T08:10:12.621Z,23.04
2019-05-03T08:11:14.415Z,23.07
2019-05-03T08:12:12.607Z,22.98
2019-05-03T08:13:14.849Z,23.09
2019-05-03T08:14:15.992Z,23.00
2019-05-03T08:15:15.603Z,22.97
2019-05-03T08:16:12.571Z,23.12
2019-05-03T08:17:12.584Z,23.07
2019-05-03T08:18:15.064Z,23.01
2019-05-03T08:19:12.592Z,23.00
2019-05-03T08:20:14.378Z,23.04
2019-05-03T08:21:12.558Z,23.05
2019-05-03T08:22:12.561Z,23.07
2019-05-03T08:23:24.463Z,23.04
2019-05-03T08:24:14.919Z,23.07
2019-05-03T08:25:14.556Z,23.04
2019-05-03T08:26:12.537Z,23.09
2019-05-03T08:27:14.764Z,23.05
2019-05-03T08:28:14.412Z,23.12
2019-05-03T08:29:16.982Z,23.04
2019-05-03T08:30:14.785Z,23.16
2019-05-03T08:31:12.479Z,23.23
2019-05-03T08:32:12.470Z,23.19
2019-05-03T08:33:14.720Z,23.12
2019-05-03T08:34:12.486Z,23.07
2019-05-03T08:35:12.469Z,22.98
2019-05-03T08:36:12.489Z,23.04
2019-05-03T08:37:12.450Z,23.10
2019-05-03T08:38:12.451Z,23.13
2019-05-03T08:39:12.437Z,23.16
2019-05-03T08:40:12.430Z,22.94
2019-05-03T08:41:14.477Z,23.04
2019-05-03T08:42:12.472Z,23.07
2019-05-03T08:43:12.429Z,23.07
2019-05-03T08:44:14.492Z,23.05
2019-05-03T08:45:12.423Z,23.12
2019-05-03T08:46:12.416Z,23.04
2019-05-03T08:47:12.437Z,23.05
2019-05-03T08:48:14.879Z,23.20
2019-05-03T08:49:12.412Z,23.10
2019-05-03T08:50:17.553Z,23.01
2019-05-03T08:51:14.888Z,23.16
2019-05-03T08:52:12.415Z,23.05
2019-05-03T08:53:12.388Z,23.00
2019-05-03T08:54:12.394Z,23.04
2019-05-03T08:55:12.371Z,23.00
2019-05-03T08:56:12.362Z,23.04
2019-05-03T08:57:12.852Z,23.19
2019-05-03T08:58:12.368Z,23.07
2019-05-03T08:59:12.345Z,23.15
2019-05-03T09:00:14.374Z,22.98
2019-05-03T09:01:14.627Z,23.10
2019-05-03T09:02:14.460Z,23.05
2019-05-03T09:03:14.318Z,23.10
2019-05-03T09:04:12.377Z,23.09
2019-05-03T09:05:12.319Z,23.10
2019-05-03T09:06:12.318Z,23.16
2019-05-03T09:07:14.604Z,23.16
2019-05-03T09:08:12.298Z,23.15
2019-05-03T09:09:12.289Z,23.16
2019-05-03T09:10:13.554Z,23.23
2019-05-03T09:11:12.281Z,23.20
2019-05-03T09:12:12.285Z,23.16
2019-05-03T09:13:14.160Z,23.17
2019-05-03T09:14:12.252Z,23.28
2019-05-03T09:15:12.245Z,23.27
2019-05-03T09:16:12.294Z,23.33
2019-05-03T09:17:12.231Z,23.32
2019-05-03T09:18:15.150Z,23.31
2019-05-03T09:19:14.697Z,23.36
2019-05-03T09:20:12.208Z,23.32
2019-05-03T09:21:12.207Z,23.36
2019-05-03T09:22:12.210Z,23.33
2019-05-03T09:23:12.183Z,23.39
2019-05-03T09:24:12.200Z,23.39
2019-05-03T09:25:12.268Z,23.33
2019-05-03T09:26:12.169Z,23.40
2019-05-03T09:27:12.150Z,23.32
2019-05-03T09:28:12.196Z,23.46
2019-05-03T09:29:12.146Z,23.40
2019-05-03T09:30:14.375Z,23.40
2019-05-03T09:31:12.136Z,23.54
2019-05-03T09:32:12.115Z,23.36
2019-05-03T09:33:12.107Z,23.47
2019-05-03T09:34:12.109Z,23.38
2019-05-03T09:35:12.099Z,23.48
2019-05-03T09:36:12.176Z,23.46
2019-05-03T09:37:12.093Z,23.39
2019-05-03T09:38:12.085Z,23.47
2019-05-03T09:39:12.194Z,23.54
2019-05-03T09:40:12.085Z,23.48
2019-05-03T09:41:12.080Z,23.57
2019-05-03T09:42:12.085Z,23.51
2019-05-03T09:43:12.075Z,23.57
2019-05-03T09:44:12.057Z,23.54
2019-05-03T09:45:12.066Z,23.57
2019-05-03T09:46:12.050Z,23.53
2019-05-03T09:47:12.103Z,23.46
2019-05-03T09:48:12.201Z,23.54
2019-05-03T09:49:14.475Z,23.54
2019-05-03T09:50:12.017Z,23.50
2019-05-03T09:51:12.001Z,23.68
2019-05-03T09:52:11.995Z,23.57
2019-05-03T09:53:11.994Z,23.60
2019-05-03T09:54:12.032Z,23.60
2019-05-03T09:55:11.965Z,23.60
2019-05-03T09:56:11.983Z,23.65
2019-05-03T09:57:11.978Z,23.58
2019-05-03T09:58:11.967Z,23.55
2019-05-03T09:59:11.979Z,23.63
2019-05-03T10:00:12.099Z,23.58
2019-05-03T10:01:11.967Z,23.63
2019-05-03T10:02:11.974Z,23.60
2019-05-03T10:03:11.964Z,23.65
2019-05-03T10:04:12.000Z,23.57
2019-05-03T10:05:11.991Z,23.55
2019-05-03T10:06:14.527Z,23.65
2019-05-03T10:07:15.154Z,23.55
2019-05-03T10:08:12.053Z,23.63
2019-05-03T10:09:11.955Z,23.70
2019-05-03T10:10:11.951Z,23.60
2019-05-03T10:11:11.939Z,23.69
2019-05-03T10:12:12.035Z,23.65
2019-05-03T10:13:16.839Z,23.68
2019-05-03T10:14:15.333Z,23.68
2019-05-03T10:15:11.956Z,23.63
2019-05-03T10:16:11.901Z,23.60
2019-05-03T10:17:11.895Z,23.68
2019-05-03T10:18:11.940Z,23.63
2019-05-03T10:19:14.304Z,23.65
2019-05-03T10:20:11.873Z,23.72
2019-05-03T10:21:11.954Z,23.66
2019-05-03T10:22:11.852Z,23.65
2019-05-03T10:23:11.852Z,23.70
2019-05-03T10:24:11.924Z,23.63
2019-05-03T10:25:11.831Z,23.61
2019-05-03T10:26:11.823Z,23.66
2019-05-03T10:27:11.856Z,23.65
2019-05-03T10:28:11.809Z,23.63
2019-05-03T10:29:11.953Z,23.63
2019-05-03T10:30:13.397Z,23.72
2019-05-03T10:31:11.791Z,23.68
2019-05-03T10:32:11.787Z,23.60
2019-05-03T10:33:11.769Z,23.55
2019-05-03T10:34:11.787Z,23.63
2019-05-03T10:35:11.782Z,23.63
2019-05-03T10:36:11.839Z,23.76
2019-05-03T10:37:11.769Z,23.80
2019-05-03T10:38:11.761Z,23.66
2019-05-03T10:39:11.747Z,23.68
2019-05-03T10:40:11.736Z,23.66
2019-05-03T10:41:11.757Z,23.68
2019-05-03T10:42:11.741Z,23.75
2019-05-03T10:43:11.742Z,23.72
2019-05-03T10:44:11.718Z,23.63
2019-05-03T10:45:11.751Z,23.72
2019-05-03T10:46:11.706Z,23.69
2019-05-03T10:47:11.714Z,23.69
2019-05-03T10:48:11.734Z,23.70
2019-05-03T10:49:11.715Z,23.72
2019-05-03T10:50:11.700Z,23.72
2019-05-03T10:51:11.691Z,23.69
2019-05-03T10:52:11.673Z,23.69
2019-05-03T10:53:11.683Z,23.69
2019-05-03T10:54:11.699Z,23.75
2019-05-03T10:55:11.750Z,23.72
2019-05-03T10:56:13.465Z,23.70
2019-05-03T10:57:11.679Z,23.65
2019-05-03T10:58:11.657Z,23.68
2019-05-03T10:59:11.641Z,23.68
2019-05-03T11:00:39.416Z,23.65
2019-05-03T11:01:12.731Z,23.70
2019-05-03T11:02:11.635Z,23.69
2019-05-03T11:03:11.619Z,23.70
2019-05-03T11:04:11.612Z,23.69
2019-05-03T11:05:11.597Z,23.68
2019-05-03T11:06:11.603Z,23.66
2019-05-03T11:07:11.714Z,23.68
2019-05-03T11:08:11.574Z,23.65
2019-05-03T11:09:11.578Z,23.58
2019-05-03T11:10:11.552Z,23.65
2019-05-03T11:11:11.551Z,23.69
2019-05-03T11:12:11.928Z,23.60
2019-05-03T11:13:11.547Z,23.70
2019-05-03T11:14:11.547Z,23.63
2019-05-03T11:15:11.558Z,23.60
2019-05-03T11:16:11.571Z,23.61
2019-05-03T11:17:11.543Z,23.57
2019-05-03T11:18:11.548Z,23.51
2019-05-03T11:19:11.548Z,23.66
2019-05-03T11:20:11.573Z,23.61
2019-05-03T11:21:11.530Z,23.63
2019-05-03T11:22:11.526Z,23.60
2019-05-03T11:23:11.513Z,23.60
2019-05-03T11:24:11.574Z,23.58
2019-05-03T11:25:11.498Z,23.55
2019-05-03T11:26:11.521Z,23.57
2019-05-03T11:27:11.505Z,23.53
2019-05-03T11:28:11.479Z,23.54
2019-05-03T11:29:11.474Z,23.63
2019-05-03T11:30:11.505Z,23.53
2019-05-03T11:31:11.483Z,23.70
2019-05-03T11:32:11.895Z,23.61
2019-05-03T11:33:11.483Z,23.61
2019-05-03T11:34:11.479Z,23.55
2019-05-03T11:35:11.843Z,23.60
2019-05-03T11:36:11.467Z,23.58
2019-05-03T11:37:11.423Z,23.55
2019-05-03T11:38:11.412Z,23.58
2019-05-03T11:39:11.410Z,23.65
2019-05-03T11:40:11.400Z,23.60
2019-05-03T11:41:11.403Z,23.63
2019-05-03T11:42:11.388Z,23.70
2019-05-03T11:43:11.367Z,23.63
2019-05-03T11:44:11.364Z,23.72
2019-05-03T11:45:11.368Z,23.60
2019-05-03T11:46:11.361Z,23.61
2019-05-03T11:47:11.373Z,23.66
2019-05-03T11:48:11.355Z,23.55
2019-05-03T11:49:11.337Z,23.66
2019-05-03T11:50:11.331Z,23.65
2019-05-03T11:51:11.344Z,23.66
2019-05-03T11:52:11.327Z,23.61
2019-05-03T11:53:11.314Z,23.63
2019-05-03T11:54:11.332Z,23.63
2019-05-03T11:55:12.233Z,23.66
2019-05-03T11:56:12.225Z,23.63
2019-05-03T11:57:11.278Z,23.60
2019-05-03T11:58:11.272Z,23.66
2019-05-03T11:59:11.258Z,23.58
2019-05-03T12:00:11.340Z,23.68
2019-05-03T12:01:16.377Z,23.66
2019-05-03T12:02:12.237Z,23.61
2019-05-03T12:03:11.248Z,23.55
2019-05-03T12:04:11.355Z,23.66
2019-05-03T12:05:11.236Z,23.66
2019-05-03T12:06:11.308Z,23.69
2019-05-03T12:07:11.217Z,23.58
2019-05-03T12:08:11.218Z,23.60
2019-05-03T12:09:11.195Z,23.63
2019-05-03T12:10:28.267Z,23.60
2019-05-03T12:11:12.231Z,23.57
2019-05-03T12:12:11.184Z,23.57
2019-05-03T12:13:11.207Z,23.57
2019-05-03T12:14:11.219Z,23.55
2019-05-03T12:15:11.153Z,23.58
2019-05-03T12:16:20.120Z,23.53
2019-05-03T12:17:18.916Z,23.57
2019-05-03T12:18:12.170Z,23.57
2019-05-03T12:19:17.187Z,23.47
2019-05-03T12:20:13.505Z,23.63
2019-05-03T12:21:12.437Z,23.61
2019-05-03T12:22:11.676Z,23.58
2019-05-03T12:23:12.103Z,23.61
2019-05-03T12:24:11.822Z,23.55
2019-05-03T12:25:11.681Z,23.54
2019-05-03T12:26:13.303Z,23.55
2019-05-03T12:27:11.068Z,23.66
2019-05-03T12:28:11.080Z,23.53
2019-05-03T12:29:11.159Z,23.58
2019-05-03T12:30:11.063Z,23.63
2019-05-03T12:31:25.869Z,23.48
2019-05-03T12:32:12.046Z,23.58
2019-05-03T12:33:11.044Z,23.58
2019-05-03T12:34:11.075Z,23.55
2019-05-03T12:35:11.104Z,23.55
2019-05-03T12:36:11.058Z,23.55
2019-05-03T12:37:11.009Z,23.51
2019-05-03T12:38:10.998Z,23.51
2019-05-03T12:39:24.239Z,23.53
2019-05-03T12:40:12.000Z,23.55
2019-05-03T12:41:10.986Z,23.60
2019-05-03T12:42:11.022Z,23.57
2019-05-03T12:43:10.964Z,23.53
2019-05-03T12:44:10.972Z,23.54
2019-05-03T12:45:10.985Z,23.65
2019-05-03T12:46:10.960Z,23.60
2019-05-03T12:47:10.962Z,23.53
2019-05-03T12:48:10.938Z,23.51
2019-05-03T12:49:10.927Z,23.48
2019-05-03T12:50:11.002Z,23.54
2019-05-03T12:51:11.458Z,23.58
2019-05-03T12:52:11.660Z,23.51